Briefing drone pour Aurillac (LFLW)

Rechercher une autre localisation

Conditions de vol :


Nous sommes le : Mardi 13 avril 2021
Il est 13:41 UTC (15:41 LT)

Lever de soleil : 04:41 UTC (06:41 LT)
Coucher de soleil : 18:59 UTC (20:59 LT)

Météo

L'essentiel des conditions de vol

VIGILANCE MÉTÉO FRANCE - Cantal (15)
Pas de vigilances particulieres
METAR de LFLW
LFLW 131330Z AUTO 36009KT 300V050 CAVOK 11/M02 Q1024 NOSIG

Date d'émission: 13/04/2021
Heure d'émission: 13:30 UTC
Vent: 360° (variable du 300° au 050°) pour 9 KT (17 km/h)
Visibilité horizontale: > 10 km
Plafond : Plafond et visibilité OK (CAVOK)
Température: 11 °C
Point de rosée: -2 °C
Humidité: 40%
Pression (QNH): 1024 hPa
Conditions: Pas de changement dans les 2 heures (NOSIG)
Prévision 24h pour Aurillac
Vent : 68° pour 1 KT (5 km/h)
Temperature Maxi: 9 °C
Temperature Min: 9 °C
Humidité : 32%
Condition : Couvert



Warning: count(): Parameter must be an array or an object that implements Countable in /homepages/6/d509196549/htdocs/droneoxygene/briefing.php on line 743
WEBCAM POUR AURILLAC

Réglementation

Voler en sécurité

CARTES AERONAUTIQUE 1/500.000
CARTES VAC (LFLW)
SUP AIP




Chargement des AIP...
NOTAM (AURILLAC + Terrain à proximité / FIR )




Chargement des NOTAMS...
CONTACT PREFECTURE 15


Avertissement : Les données mises à disposition sont indicatives. Oxygène Drone ne pourra être tenu responsable de dégâts causés aux biens et aux personnes.